createdAt,value
2018-03-27T00:01:14.626Z,0
2018-03-27T00:02:36.231Z,0
2018-03-27T00:03:58.075Z,0
2018-03-27T00:05:19.457Z,0
2018-03-27T00:06:41.071Z,0
2018-03-27T00:08:03.021Z,0
2018-03-27T00:09:24.763Z,0
2018-03-27T00:10:46.386Z,0
2018-03-27T00:12:07.968Z,0
2018-03-27T00:13:29.046Z,0
2018-03-27T00:14:50.452Z,0
2018-03-27T00:16:12.078Z,0
2018-03-27T00:17:33.185Z,0
2018-03-27T00:18:55.069Z,0
2018-03-27T00:20:16.931Z,0
2018-03-27T00:21:39.143Z,0
2018-03-27T00:23:00.490Z,0
2018-03-27T00:24:22.395Z,0
2018-03-27T00:25:44.510Z,0
2018-03-27T00:27:05.591Z,0
2018-03-27T00:28:27.198Z,0
2018-03-27T00:29:49.332Z,0
2018-03-27T00:31:11.445Z,0
2018-03-27T00:32:33.330Z,0
2018-03-27T00:33:54.952Z,0
2018-03-27T00:35:16.817Z,0
2018-03-27T00:36:38.303Z,0
2018-03-27T00:37:59.631Z,0
2018-03-27T00:39:21.236Z,0
2018-03-27T00:40:42.895Z,0
2018-03-27T00:42:04.560Z,0
2018-03-27T00:43:25.640Z,0
2018-03-27T00:44:47.384Z,0
2018-03-27T00:46:08.705Z,0
2018-03-27T00:47:30.591Z,0
2018-03-27T00:48:51.958Z,0
2018-03-27T00:50:13.031Z,0
2018-03-27T00:51:34.420Z,0
2018-03-27T00:52:56.032Z,0
2018-03-27T00:54:18.270Z,0
2018-03-27T00:55:40.261Z,0
2018-03-27T00:57:01.922Z,0
2018-03-27T00:58:23.595Z,0
2018-03-27T00:59:45.725Z,0
2018-03-27T01:01:07.340Z,0
2018-03-27T01:02:29.463Z,0
2018-03-27T01:03:51.072Z,0
2018-03-27T01:05:13.289Z,0
2018-03-27T01:06:34.888Z,0
2018-03-27T01:07:56.750Z,0
2018-03-27T01:09:18.470Z,0
2018-03-27T01:10:39.811Z,0
2018-03-27T01:12:01.400Z,0
2018-03-27T01:13:23.012Z,0
2018-03-27T01:14:44.632Z,0
2018-03-27T01:16:06.510Z,0
2018-03-27T01:17:28.386Z,0
2018-03-27T01:18:49.982Z,0
2018-03-27T01:20:12.096Z,0
2018-03-27T01:21:33.460Z,0
2018-03-27T01:22:55.332Z,0
2018-03-27T01:24:17.053Z,0
2018-03-27T01:25:38.752Z,0
2018-03-27T01:27:00.187Z,0
2018-03-27T01:28:21.281Z,0
2018-03-27T01:29:42.870Z,0
2018-03-27T01:31:04.502Z,0
2018-03-27T01:32:26.369Z,0
2018-03-27T01:33:47.964Z,0
2018-03-27T01:35:09.830Z,0
2018-03-27T01:36:31.581Z,0
2018-03-27T01:37:53.182Z,0
2018-03-27T01:39:14.550Z,0
2018-03-27T01:40:36.160Z,0
2018-03-27T01:41:57.795Z,0
2018-03-27T01:43:19.664Z,0
2018-03-27T01:44:41.529Z,0
2018-03-27T01:46:03.143Z,0
2018-03-27T01:47:25.284Z,0
2018-03-27T01:48:46.658Z,0
2018-03-27T01:50:08.266Z,0
2018-03-27T01:51:30.131Z,0
2018-03-27T01:52:52.262Z,0
2018-03-27T01:54:14.410Z,0
2018-03-27T01:55:36.541Z,0
2018-03-27T01:56:58.264Z,0
2018-03-27T01:58:20.330Z,0
2018-03-27T01:59:42.199Z,0
2018-03-27T02:01:03.654Z,0
2018-03-27T02:02:25.536Z,0
2018-03-27T02:03:47.492Z,0
2018-03-27T02:05:09.122Z,0
2018-03-27T02:06:30.809Z,0
2018-03-27T02:07:52.740Z,0
2018-03-27T02:09:14.625Z,0
2018-03-27T02:10:36.877Z,0
2018-03-27T02:11:58.431Z,0
2018-03-27T02:13:20.587Z,0
2018-03-27T02:14:41.924Z,0
2018-03-27T02:16:03.392Z,0
2018-03-27T02:17:25.544Z,0
2018-03-27T02:18:46.898Z,0
2018-03-27T02:20:09.150Z,0
2018-03-27T02:21:31.036Z,0
2018-03-27T02:22:52.651Z,0
2018-03-27T02:24:14.479Z,0
2018-03-27T02:25:36.096Z,0
2018-03-27T02:26:57.700Z,0
2018-03-27T02:28:19.610Z,0
2018-03-27T02:29:41.644Z,0
2018-03-27T02:31:03.800Z,0
2018-03-27T02:32:25.945Z,0
2018-03-27T02:33:47.367Z,0
2018-03-27T02:35:08.995Z,0
2018-03-27T02:36:30.906Z,0
2018-03-27T02:37:52.514Z,0
2018-03-27T02:39:13.620Z,0
2018-03-27T02:40:35.402Z,0
2018-03-27T02:41:57.344Z,0
2018-03-27T02:43:19.232Z,0
2018-03-27T02:44:40.860Z,0
2018-03-27T02:46:02.489Z,0
2018-03-27T02:47:24.091Z,0
2018-03-27T02:48:45.702Z,0
2018-03-27T02:50:07.847Z,0
2018-03-27T02:51:29.207Z,0
2018-03-27T02:52:50.482Z,0
2018-03-27T02:54:12.103Z,0
2018-03-27T02:55:33.731Z,0
2018-03-27T02:56:55.342Z,0
2018-03-27T02:58:17.499Z,0
2018-03-27T02:59:38.934Z,0
2018-03-27T03:01:01.111Z,0
2018-03-27T03:02:22.985Z,0
2018-03-27T03:03:44.325Z,0
2018-03-27T03:05:06.231Z,0
2018-03-27T03:06:28.101Z,0
2018-03-27T03:07:49.505Z,0
2018-03-27T03:09:11.130Z,0
2018-03-27T03:10:32.782Z,0
2018-03-27T03:11:54.403Z,0
2018-03-27T03:13:16.117Z,0
2018-03-27T03:14:37.630Z,0
2018-03-27T03:15:58.992Z,0
2018-03-27T03:17:20.699Z,0
2018-03-27T03:18:42.575Z,0
2018-03-27T03:20:03.944Z,0
2018-03-27T03:21:25.331Z,0
2018-03-27T03:22:46.930Z,0
2018-03-27T03:24:08.290Z,0
2018-03-27T03:25:30.155Z,0
2018-03-27T03:26:52.039Z,0
2018-03-27T03:28:13.691Z,0
2018-03-27T03:29:35.582Z,0
2018-03-27T03:30:57.713Z,0
2018-03-27T03:32:19.612Z,0
2018-03-27T03:33:41.238Z,0
2018-03-27T03:35:03.102Z,0
2018-03-27T03:36:24.811Z,0
2018-03-27T03:37:47.085Z,0
2018-03-27T03:39:08.692Z,0
2018-03-27T03:40:30.309Z,0
2018-03-27T03:41:52.339Z,0
2018-03-27T03:43:14.195Z,0
2018-03-27T03:44:35.809Z,0
2018-03-27T03:45:57.203Z,0
2018-03-27T03:47:19.382Z,0
2018-03-27T03:48:40.980Z,0
2018-03-27T03:50:02.854Z,0
2018-03-27T03:51:24.741Z,0
2018-03-27T03:52:46.370Z,0
2018-03-27T03:54:07.482Z,0
2018-03-27T03:55:29.081Z,0
2018-03-27T03:56:51.297Z,0
2018-03-27T03:58:13.491Z,0
2018-03-27T03:59:35.142Z,0
2018-03-27T04:00:56.755Z,0
2018-03-27T04:02:18.381Z,0
2018-03-27T04:03:39.976Z,0
2018-03-27T04:05:01.396Z,0
2018-03-27T04:06:22.460Z,0
2018-03-27T04:07:43.805Z,0
2018-03-27T04:09:05.731Z,0
2018-03-27T04:10:27.326Z,0
2018-03-27T04:11:48.953Z,0
2018-03-27T04:13:10.542Z,0
2018-03-27T04:14:32.400Z,0
2018-03-27T04:15:54.270Z,0
2018-03-27T04:17:15.385Z,0
2018-03-27T04:18:37.051Z,0
2018-03-27T04:19:58.122Z,0
2018-03-27T04:21:19.549Z,0
2018-03-27T04:22:41.411Z,0
2018-03-27T04:24:03.104Z,0
2018-03-27T04:25:24.181Z,0
2018-03-27T04:26:46.294Z,0
2018-03-27T04:28:08.420Z,0
2018-03-27T04:29:30.023Z,0
2018-03-27T04:30:51.082Z,0
2018-03-27T04:32:13.208Z,0
2018-03-27T04:33:35.380Z,0
2018-03-27T04:34:57.510Z,0
2018-03-27T04:36:19.382Z,0
2018-03-27T04:37:41.311Z,0
2018-03-27T04:39:03.191Z,4
2018-03-27T04:40:25.360Z,0
2018-03-27T04:41:46.871Z,4
2018-03-27T04:43:08.714Z,0
2018-03-27T04:44:30.632Z,4
2018-03-27T04:45:52.519Z,4
2018-03-27T04:47:14.386Z,8
2018-03-27T04:48:35.983Z,8
2018-03-27T04:49:57.850Z,12
2018-03-27T04:51:19.312Z,16
2018-03-27T04:52:41.590Z,16
2018-03-27T04:54:03.026Z,24
2018-03-27T04:55:24.631Z,28
2018-03-27T04:56:46.242Z,36
2018-03-27T04:58:07.867Z,40
2018-03-27T04:59:29.018Z,52
2018-03-27T05:00:50.874Z,60
2018-03-27T05:02:11.960Z,76
2018-03-27T05:03:33.173Z,92
2018-03-27T05:04:54.789Z,112
2018-03-27T05:06:16.151Z,136
2018-03-27T05:07:37.817Z,156
2018-03-27T05:08:59.431Z,180
2018-03-27T05:10:21.559Z,204
2018-03-27T05:11:43.176Z,236
2018-03-27T05:13:04.255Z,264
2018-03-27T05:14:26.410Z,300
2018-03-27T05:15:48.027Z,340
2018-03-27T05:17:09.624Z,376
2018-03-27T05:18:31.503Z,416
2018-03-27T05:19:53.374Z,456
2018-03-27T05:21:15.551Z,492
2018-03-27T05:22:37.419Z,532
2018-03-27T05:23:58.822Z,572
2018-03-27T05:25:20.968Z,608
2018-03-27T05:26:42.614Z,640
2018-03-27T05:28:04.502Z,668
2018-03-27T05:29:26.757Z,696
2018-03-27T05:30:48.505Z,732
2018-03-27T05:32:10.411Z,772
2018-03-27T05:33:32.631Z,820
2018-03-27T05:34:54.276Z,884
2018-03-27T05:36:16.042Z,956
2018-03-27T05:37:37.956Z,1044
2018-03-27T05:38:59.592Z,1144
2018-03-27T05:40:21.211Z,1256
2018-03-27T05:41:42.826Z,1348
2018-03-27T05:43:04.206Z,1436
2018-03-27T05:44:25.810Z,1508
2018-03-27T05:45:47.487Z,1552
2018-03-27T05:47:09.012Z,1580
2018-03-27T05:48:30.360Z,1576
2018-03-27T05:49:51.721Z,1580
2018-03-27T05:51:13.574Z,1600
2018-03-27T05:52:34.981Z,1668
2018-03-27T05:53:56.440Z,1788
2018-03-27T05:55:18.026Z,1912
2018-03-27T05:56:39.719Z,2028
2018-03-27T05:58:01.421Z,2144
2018-03-27T05:59:23.032Z,2268
2018-03-27T06:00:45.173Z,2384
2018-03-27T06:02:07.120Z,2532
2018-03-27T06:03:28.592Z,2720
2018-03-27T06:04:49.953Z,2828
2018-03-27T06:06:11.042Z,2888
2018-03-27T06:07:32.523Z,2956
2018-03-27T06:08:54.664Z,3064
2018-03-27T06:10:15.755Z,3192
2018-03-27T06:11:37.098Z,3312
2018-03-27T06:12:59.250Z,3360
2018-03-27T06:14:21.455Z,3360
2018-03-27T06:15:43.341Z,3356
2018-03-27T06:17:04.680Z,3392
2018-03-27T06:18:26.557Z,3468
2018-03-27T06:19:48.230Z,3532
2018-03-27T06:21:09.880Z,3568
2018-03-27T06:22:31.230Z,3620
2018-03-27T06:23:53.079Z,3700
2018-03-27T06:25:14.969Z,3840
2018-03-27T06:26:36.850Z,3944
2018-03-27T06:27:58.871Z,4072
2018-03-27T06:29:20.742Z,4284
2018-03-27T06:30:42.723Z,4524
2018-03-27T06:32:04.989Z,4736
2018-03-27T06:33:26.610Z,4860
2018-03-27T06:34:47.937Z,4880
2018-03-27T06:36:09.572Z,4836
2018-03-27T06:37:30.688Z,4796
2018-03-27T06:38:52.031Z,4748
2018-03-27T06:40:13.910Z,4680
2018-03-27T06:41:35.576Z,4568
2018-03-27T06:42:57.520Z,4420
2018-03-27T06:44:19.390Z,4292
2018-03-27T06:45:40.739Z,4212
2018-03-27T06:47:02.629Z,4164
2018-03-27T06:48:24.321Z,4156
2018-03-27T06:49:46.019Z,4120
2018-03-27T06:51:07.139Z,4124
2018-03-27T06:52:28.741Z,4212
2018-03-27T06:53:50.351Z,4308
2018-03-27T06:55:11.427Z,4412
2018-03-27T06:56:33.545Z,4500
2018-03-27T06:57:55.506Z,4532
2018-03-27T06:59:17.489Z,4624
2018-03-27T07:00:39.664Z,4656
2018-03-27T07:02:01.420Z,4632
2018-03-27T07:03:23.043Z,4704
2018-03-27T07:04:44.715Z,4764
2018-03-27T07:06:06.384Z,4808
2018-03-27T07:07:28.027Z,4888
2018-03-27T07:08:50.155Z,4992
2018-03-27T07:10:11.586Z,5068
2018-03-27T07:11:33.846Z,5128
2018-03-27T07:12:55.865Z,5196
2018-03-27T07:14:17.518Z,5328
2018-03-27T07:15:39.203Z,5508
2018-03-27T07:17:01.158Z,5728
2018-03-27T07:18:22.861Z,5916
2018-03-27T07:19:44.582Z,6088
2018-03-27T07:21:06.753Z,6304
2018-03-27T07:22:29.103Z,6472
2018-03-27T07:23:50.969Z,6600
2018-03-27T07:25:12.863Z,6788
2018-03-27T07:26:34.780Z,7044
2018-03-27T07:27:56.733Z,7280
2018-03-27T07:29:18.130Z,7388
2018-03-27T07:30:40.000Z,7376
2018-03-27T07:32:01.879Z,7304
2018-03-27T07:33:23.496Z,7300
2018-03-27T07:34:45.705Z,7544
2018-03-27T07:36:07.411Z,7892
2018-03-27T07:37:29.544Z,8212
2018-03-27T07:38:51.194Z,8444
2018-03-27T07:40:13.514Z,8552
2018-03-27T07:41:35.611Z,8632
2018-03-27T07:42:57.756Z,8816
2018-03-27T07:44:19.675Z,9196
2018-03-27T07:45:41.568Z,9592
2018-03-27T07:47:03.517Z,10016
2018-03-27T07:48:25.404Z,10576
2018-03-27T07:49:47.249Z,10904
2018-03-27T07:51:08.843Z,11292
2018-03-27T07:52:30.662Z,11580
2018-03-27T07:53:52.261Z,11920
2018-03-27T07:55:14.436Z,12036
2018-03-27T07:56:36.564Z,12112
2018-03-27T07:57:58.700Z,12428
2018-03-27T07:59:20.723Z,12812
2018-03-27T08:00:42.441Z,12828
2018-03-27T08:02:04.325Z,12616
2018-03-27T08:03:58.358Z,12656
2018-03-27T08:05:20.523Z,12956
2018-03-27T08:06:42.411Z,13156
2018-03-27T08:08:04.365Z,12984
2018-03-27T08:09:26.014Z,12420
2018-03-27T08:10:48.010Z,11948
2018-03-27T08:12:09.947Z,12192
2018-03-27T08:13:32.102Z,11936
2018-03-27T08:14:53.761Z,11500
2018-03-27T08:16:15.720Z,10968
2018-03-27T08:17:37.426Z,9716
2018-03-27T08:18:59.076Z,9040
2018-03-27T08:20:21.203Z,8616
2018-03-27T08:21:42.891Z,8304
2018-03-27T08:23:04.771Z,8156
2018-03-27T08:24:27.554Z,8084
2018-03-27T08:25:49.823Z,8096
2018-03-27T08:27:11.949Z,8240
2018-03-27T08:28:33.539Z,8760
2018-03-27T08:29:55.573Z,9428
2018-03-27T08:31:17.470Z,10316
2018-03-27T08:32:39.641Z,11556
2018-03-27T08:34:01.919Z,12988
2018-03-27T08:35:23.542Z,14024
2018-03-27T08:36:45.445Z,14232
2018-03-27T08:38:07.346Z,14292
2018-03-27T08:39:29.483Z,15152
2018-03-27T08:40:50.831Z,16012
2018-03-27T08:42:12.977Z,16800
2018-03-27T08:43:34.932Z,17024
2018-03-27T08:44:56.847Z,16736
2018-03-27T08:46:18.841Z,15436
2018-03-27T08:47:40.730Z,14796
2018-03-27T08:49:02.627Z,14852
2018-03-27T08:50:24.528Z,14408
2018-03-27T08:51:46.161Z,13856
2018-03-27T08:53:08.423Z,13800
2018-03-27T08:54:30.571Z,13792
2018-03-27T08:55:52.725Z,14512
2018-03-27T08:57:14.356Z,14960
2018-03-27T08:58:36.589Z,14724
2018-03-27T08:59:58.366Z,14564
2018-03-27T09:01:20.070Z,13748
2018-03-27T09:02:41.447Z,13808
2018-03-27T09:04:03.119Z,13060
2018-03-27T09:05:25.123Z,13068
2018-03-27T09:06:47.020Z,12900
2018-03-27T09:08:09.156Z,11916
2018-03-27T09:09:31.356Z,11708
2018-03-27T09:10:53.503Z,11620
2018-03-27T09:12:15.669Z,11576
2018-03-27T09:13:37.622Z,11628
2018-03-27T09:14:59.241Z,12100
2018-03-27T09:16:20.673Z,12004
2018-03-27T09:17:42.018Z,12488
2018-03-27T09:19:03.374Z,13540
2018-03-27T09:20:25.000Z,14312
2018-03-27T09:21:46.617Z,14148
2018-03-27T09:23:08.303Z,13844
2018-03-27T09:24:30.560Z,13308
2018-03-27T09:25:52.451Z,12852
2018-03-27T09:27:14.102Z,12628
2018-03-27T09:28:36.147Z,12740
2018-03-27T09:29:58.423Z,12896
2018-03-27T09:31:20.711Z,12700
2018-03-27T09:32:42.995Z,12820
2018-03-27T09:34:04.897Z,12936
2018-03-27T09:35:27.072Z,12996
2018-03-27T09:36:48.748Z,13176
2018-03-27T09:38:10.648Z,13008
2018-03-27T09:39:32.550Z,13012
2018-03-27T09:40:53.921Z,12464
2018-03-27T09:42:15.796Z,11736
2018-03-27T09:43:37.676Z,10300
2018-03-27T09:44:59.568Z,9656
2018-03-27T09:46:21.627Z,9196
2018-03-27T09:47:43.614Z,8660
2018-03-27T09:49:04.978Z,8796
2018-03-27T09:50:26.774Z,9324
2018-03-27T09:51:48.104Z,11116
2018-03-27T09:53:09.796Z,13368
2018-03-27T09:54:31.972Z,14952
2018-03-27T09:55:53.851Z,15424
2018-03-27T09:57:15.483Z,15560
2018-03-27T09:58:36.862Z,15224
2018-03-27T09:59:58.740Z,15192
2018-03-27T10:01:20.768Z,15204
2018-03-27T10:02:42.669Z,15300
2018-03-27T10:04:04.824Z,15332
2018-03-27T10:05:26.978Z,14712
2018-03-27T10:06:48.608Z,14500
2018-03-27T10:08:10.766Z,15472
2018-03-27T10:09:32.464Z,15352
2018-03-27T10:10:53.962Z,14588
2018-03-27T10:12:15.914Z,14208
2018-03-27T10:13:38.122Z,13576
2018-03-27T10:14:59.543Z,13772
2018-03-27T10:16:21.486Z,14512
2018-03-27T10:17:43.368Z,15388
2018-03-27T10:19:05.000Z,15392
2018-03-27T10:20:26.660Z,15116
2018-03-27T10:21:48.390Z,14464
2018-03-27T10:23:10.282Z,14376
2018-03-27T10:24:32.210Z,14228
2018-03-27T10:25:53.562Z,14696
2018-03-27T10:27:15.159Z,15080
2018-03-27T10:28:36.551Z,15376
2018-03-27T10:29:57.923Z,16384
2018-03-27T10:31:19.825Z,16384
2018-03-27T10:32:41.786Z,15748
2018-03-27T10:34:03.468Z,15748
2018-03-27T10:35:25.111Z,15756
2018-03-27T10:36:46.746Z,15912
2018-03-27T10:38:07.847Z,15748
2018-03-27T10:39:29.221Z,15608
2018-03-27T10:40:50.646Z,15600
2018-03-27T10:42:12.564Z,15624
2018-03-27T10:43:34.210Z,16384
2018-03-27T10:44:56.128Z,16448
2018-03-27T10:46:17.559Z,15636
2018-03-27T10:47:39.712Z,14364
2018-03-27T10:49:01.609Z,13736
2018-03-27T10:50:22.961Z,12416
2018-03-27T10:51:45.114Z,10844
2018-03-27T10:53:06.791Z,10264
2018-03-27T10:54:28.402Z,10468
2018-03-27T10:55:50.355Z,11812
2018-03-27T10:57:12.240Z,13144
2018-03-27T10:58:33.598Z,14152
2018-03-27T10:59:54.506Z,15664
2018-03-27T11:01:16.136Z,17248
2018-03-27T11:02:38.467Z,18528
2018-03-27T11:04:00.824Z,17280
2018-03-27T11:05:22.436Z,15280
2018-03-27T11:06:44.054Z,13648
2018-03-27T11:08:05.738Z,12416
2018-03-27T11:09:27.380Z,11828
2018-03-27T11:10:49.255Z,11944
2018-03-27T11:12:10.870Z,12428
2018-03-27T11:13:32.490Z,12208
2018-03-27T11:14:53.853Z,11324
2018-03-27T11:16:15.222Z,10692
2018-03-27T11:17:37.157Z,10172
2018-03-27T11:18:58.815Z,10064
2018-03-27T11:20:20.979Z,9684
2018-03-27T11:21:42.339Z,9552
2018-03-27T11:23:04.240Z,9344
2018-03-27T11:24:25.886Z,9396
2018-03-27T11:25:48.029Z,9636
2018-03-27T11:27:10.203Z,10016
2018-03-27T11:28:31.911Z,9976
2018-03-27T11:29:54.087Z,9768
2018-03-27T11:31:15.727Z,9408
2018-03-27T11:32:37.667Z,9212
2018-03-27T11:33:59.289Z,9040
2018-03-27T11:35:20.973Z,8896
2018-03-27T11:36:43.128Z,8584
2018-03-27T11:38:05.079Z,8424
2018-03-27T11:39:26.984Z,8340
2018-03-27T11:40:48.342Z,8256
2018-03-27T11:42:09.722Z,8068
2018-03-27T11:43:31.620Z,7860
2018-03-27T11:44:53.297Z,7528
2018-03-27T11:46:15.242Z,7328
2018-03-27T11:47:37.478Z,7188
2018-03-27T11:48:58.878Z,7236
2018-03-27T11:50:20.885Z,7336
2018-03-27T11:51:42.260Z,7416
2018-03-27T11:53:03.683Z,7464
2018-03-27T11:54:25.588Z,7564
2018-03-27T11:55:47.266Z,7776
2018-03-27T11:57:09.254Z,8224
2018-03-27T11:58:30.921Z,7824
2018-03-27T11:59:52.818Z,7804
2018-03-27T12:01:14.465Z,7904
2018-03-27T12:02:36.691Z,7284
2018-03-27T12:03:58.040Z,7552
2018-03-27T12:05:19.475Z,7632
2018-03-27T12:06:40.853Z,7748
2018-03-27T12:08:02.733Z,7532
2018-03-27T12:09:23.845Z,7712
2018-03-27T12:10:45.262Z,7788
2018-03-27T12:12:07.061Z,7876
2018-03-27T12:13:28.416Z,7552
2018-03-27T12:14:50.321Z,8004
2018-03-27T12:16:11.946Z,8092
2018-03-27T12:17:33.873Z,8404
2018-03-27T12:18:55.660Z,8776
2018-03-27T12:20:17.549Z,8976
2018-03-27T12:21:39.173Z,8624
2018-03-27T12:23:01.102Z,8860
2018-03-27T12:24:23.002Z,8796
2018-03-27T12:25:44.880Z,8688
2018-03-27T12:27:06.783Z,8548
2018-03-27T12:28:27.880Z,8320
2018-03-27T12:29:49.920Z,8004
2018-03-27T12:31:12.166Z,7792
2018-03-27T12:32:33.818Z,7760
2018-03-27T12:33:56.002Z,7924
2018-03-27T12:35:17.896Z,7884
2018-03-27T12:36:39.263Z,8424
2018-03-27T12:38:01.216Z,8716
2018-03-27T12:39:22.613Z,9444
2018-03-27T12:40:44.250Z,9944
2018-03-27T12:42:06.198Z,10196
2018-03-27T12:43:27.981Z,9516
2018-03-27T12:44:49.949Z,9348
2018-03-27T12:46:11.584Z,9284
2018-03-27T12:47:33.245Z,9344
2018-03-27T12:48:55.133Z,9516
2018-03-27T12:50:17.412Z,9676
2018-03-27T12:51:38.780Z,10676
2018-03-27T12:53:00.173Z,11360
2018-03-27T12:54:21.593Z,11568
2018-03-27T12:55:43.832Z,11772
2018-03-27T12:57:05.464Z,11956
2018-03-27T12:58:27.324Z,11540
2018-03-27T12:59:49.251Z,11412
2018-03-27T13:01:11.521Z,11608
2018-03-27T13:02:32.866Z,11812
2018-03-27T13:03:54.796Z,12040
2018-03-27T13:05:16.692Z,12044
2018-03-27T13:06:38.034Z,12624
2018-03-27T13:07:59.974Z,13552
2018-03-27T13:09:21.355Z,14080
2018-03-27T13:10:42.452Z,13844
2018-03-27T13:12:03.876Z,13508
2018-03-27T13:13:25.525Z,13360
2018-03-27T13:15:19.544Z,13180
2018-03-27T13:16:41.220Z,12960
2018-03-27T13:18:02.920Z,13184
2018-03-27T13:19:24.828Z,12876
2018-03-27T13:20:46.723Z,13144
2018-03-27T13:22:08.742Z,14208
2018-03-27T13:23:30.414Z,14044
2018-03-27T13:24:52.348Z,13504
2018-03-27T13:26:14.221Z,14496
2018-03-27T13:27:36.483Z,14040
2018-03-27T13:28:58.114Z,13768
2018-03-27T13:30:19.725Z,13696
2018-03-27T13:31:41.413Z,12688
2018-03-27T13:33:03.309Z,12728
2018-03-27T13:34:25.265Z,12052
2018-03-27T13:35:47.421Z,11108
2018-03-27T13:37:09.844Z,10868
2018-03-27T13:38:31.470Z,11440
2018-03-27T13:39:53.087Z,11644
2018-03-27T13:41:15.253Z,11780
2018-03-27T13:42:37.123Z,12076
2018-03-27T13:43:59.033Z,12192
2018-03-27T13:45:20.948Z,12032
2018-03-27T13:46:42.858Z,12500
2018-03-27T13:48:04.282Z,12268
2018-03-27T13:49:26.150Z,11940
2018-03-27T13:50:47.787Z,11444
2018-03-27T13:52:09.819Z,10492
2018-03-27T13:53:31.726Z,10384
2018-03-27T13:54:54.061Z,9952
2018-03-27T13:56:16.274Z,9392
2018-03-27T13:57:37.908Z,9676
2018-03-27T13:58:59.269Z,10472
2018-03-27T14:00:20.870Z,11180
2018-03-27T14:01:42.899Z,10712
2018-03-27T14:03:04.513Z,10320
2018-03-27T14:04:26.425Z,10516
2018-03-27T14:05:48.058Z,10768
2018-03-27T14:07:10.232Z,10812
2018-03-27T14:08:32.394Z,10544
2018-03-27T14:09:54.347Z,10040
2018-03-27T14:11:16.030Z,9392
2018-03-27T14:12:38.256Z,9048
2018-03-27T14:14:00.594Z,8968
2018-03-27T14:15:22.701Z,8724
2018-03-27T14:16:44.034Z,8520
2018-03-27T14:18:05.929Z,9100
2018-03-27T14:19:27.812Z,10072
2018-03-27T14:20:49.948Z,10712
2018-03-27T14:22:11.326Z,10796
2018-03-27T14:23:33.580Z,11152
2018-03-27T14:24:55.306Z,11664
2018-03-27T14:26:17.094Z,12072
2018-03-27T14:27:39.109Z,11828
2018-03-27T14:29:01.027Z,11292
2018-03-27T14:30:23.182Z,11288
2018-03-27T14:31:44.823Z,11828
2018-03-27T14:33:06.677Z,12024
2018-03-27T14:34:28.568Z,11928
2018-03-27T14:35:50.743Z,11372
2018-03-27T14:37:12.128Z,10632
2018-03-27T14:38:33.745Z,10308
2018-03-27T14:39:55.910Z,10208
2018-03-27T14:41:17.944Z,10060
2018-03-27T14:42:39.844Z,9992
2018-03-27T14:44:02.003Z,9896
2018-03-27T14:45:23.637Z,9912
2018-03-27T14:46:45.879Z,9980
2018-03-27T14:48:08.103Z,9864
2018-03-27T14:49:30.084Z,9816
2018-03-27T14:50:51.730Z,9744
2018-03-27T14:52:13.899Z,9696
2018-03-27T14:53:35.809Z,9540
2018-03-27T14:54:57.703Z,9256
2018-03-27T14:56:19.653Z,8992
2018-03-27T14:57:41.607Z,8876
2018-03-27T14:59:03.214Z,8852
2018-03-27T15:00:25.385Z,8940
2018-03-27T15:01:47.608Z,9028
2018-03-27T15:03:09.824Z,9048
2018-03-27T15:04:32.045Z,9040
2018-03-27T15:05:53.975Z,9000
2018-03-27T15:07:16.301Z,8892
2018-03-27T15:08:37.951Z,8752
2018-03-27T15:10:00.140Z,8652
2018-03-27T15:11:22.374Z,8576
2018-03-27T15:12:44.654Z,8520
2018-03-27T15:14:06.303Z,8540
2018-03-27T15:15:27.423Z,8604
2018-03-27T15:16:49.616Z,8568
2018-03-27T15:18:11.557Z,8568
2018-03-27T15:19:33.495Z,8592
2018-03-27T15:20:55.664Z,8568
2018-03-27T15:22:18.045Z,8552
2018-03-27T15:23:39.158Z,8596
2018-03-27T15:25:01.095Z,8516
2018-03-27T15:26:22.984Z,8400
2018-03-27T15:27:44.894Z,8292
2018-03-27T15:29:07.177Z,8160
2018-03-27T15:30:28.835Z,8036
2018-03-27T15:31:50.483Z,7956
2018-03-27T15:33:12.712Z,7896
2018-03-27T15:34:34.683Z,7820
2018-03-27T15:35:56.154Z,7716
2018-03-27T15:37:17.573Z,7604
2018-03-27T15:38:39.194Z,7488
2018-03-27T15:40:01.137Z,7364
2018-03-27T15:41:23.458Z,7256
2018-03-27T15:42:45.366Z,7172
2018-03-27T15:44:07.518Z,7088
2018-03-27T15:45:29.739Z,6984
2018-03-27T15:46:51.895Z,6876
2018-03-27T15:48:13.807Z,6752
2018-03-27T15:49:35.716Z,6624
2018-03-27T15:50:57.672Z,6512
2018-03-27T15:52:19.866Z,6420
2018-03-27T15:53:42.086Z,6344
2018-03-27T15:55:04.017Z,6292
2018-03-27T15:56:25.945Z,6256
2018-03-27T15:57:47.603Z,6200
2018-03-27T15:59:09.880Z,6132
2018-03-27T16:00:31.793Z,6044
2018-03-27T16:01:53.529Z,5960
2018-03-27T16:03:15.703Z,5884
2018-03-27T16:04:37.603Z,5820
2018-03-27T16:05:59.764Z,5764
2018-03-27T16:07:21.754Z,5716
2018-03-27T16:09:15.280Z,5644
2018-03-27T16:10:37.564Z,5560
2018-03-27T16:11:59.039Z,5468
2018-03-27T16:13:21.320Z,5364
2018-03-27T16:14:43.666Z,5268
2018-03-27T16:16:07.196Z,5176
2018-03-27T16:17:28.570Z,5084
2018-03-27T16:18:50.528Z,5000
2018-03-27T16:20:11.906Z,4940
2018-03-27T16:21:33.528Z,4892
2018-03-27T16:22:55.709Z,4848
2018-03-27T16:24:17.643Z,4808
2018-03-27T16:25:39.602Z,4768
2018-03-27T16:27:01.493Z,4732
2018-03-27T16:28:22.939Z,4676
2018-03-27T16:29:44.579Z,4608
2018-03-27T16:31:06.162Z,4536
2018-03-27T16:32:28.185Z,4456
2018-03-27T16:33:49.896Z,4364
2018-03-27T16:35:12.090Z,4264
2018-03-27T16:36:34.283Z,4144
2018-03-27T16:37:55.944Z,4012
2018-03-27T16:39:17.039Z,3872
2018-03-27T16:40:38.480Z,3724
2018-03-27T16:41:59.847Z,3556
2018-03-27T16:43:21.752Z,3388
2018-03-27T16:44:43.361Z,3216
2018-03-27T16:46:05.278Z,3040
2018-03-27T16:47:27.297Z,2864
2018-03-27T16:48:49.257Z,2688
2018-03-27T16:50:11.519Z,2516
2018-03-27T16:51:33.185Z,2352
2018-03-27T16:52:55.432Z,2192
2018-03-27T16:54:17.330Z,2036
2018-03-27T16:55:39.085Z,1900
2018-03-27T16:57:00.529Z,1780
2018-03-27T16:58:22.557Z,1672
2018-03-27T16:59:44.184Z,1584
2018-03-27T17:01:06.364Z,1508
2018-03-27T17:02:28.117Z,1440
2018-03-27T17:03:49.783Z,1368
2018-03-27T17:05:11.689Z,1308
2018-03-27T17:06:33.615Z,1244
2018-03-27T17:07:55.541Z,1196
2018-03-27T17:09:17.454Z,1152
2018-03-27T17:10:38.826Z,1116
2018-03-27T17:12:00.726Z,1088
2018-03-27T17:13:22.968Z,1052
2018-03-27T17:14:45.127Z,1024
2018-03-27T17:16:07.358Z,1004
2018-03-27T17:18:01.402Z,972
2018-03-27T17:19:23.551Z,948
2018-03-27T17:20:45.744Z,908
2018-03-27T17:22:07.427Z,872
2018-03-27T17:23:29.068Z,824
2018-03-27T17:24:50.982Z,776
2018-03-27T17:26:13.234Z,728
2018-03-27T17:27:35.427Z,672
2018-03-27T17:28:57.626Z,624
2018-03-27T17:30:19.800Z,568
2018-03-27T17:31:41.673Z,516
2018-03-27T17:33:03.898Z,472
2018-03-27T17:34:26.050Z,424
2018-03-27T17:35:47.703Z,384
2018-03-27T17:37:09.538Z,344
2018-03-27T17:38:31.440Z,308
2018-03-27T17:39:53.079Z,280
2018-03-27T17:41:14.244Z,252
2018-03-27T17:42:36.424Z,228
2018-03-27T17:43:58.061Z,204
2018-03-27T17:45:19.727Z,188
2018-03-27T17:46:41.657Z,168
2018-03-27T17:48:03.278Z,156
2018-03-27T17:49:25.169Z,140
2018-03-27T17:50:47.400Z,124
2018-03-27T17:52:09.037Z,112
2018-03-27T17:53:31.228Z,100
2018-03-27T17:54:53.376Z,88
2018-03-27T17:56:15.567Z,76
2018-03-27T17:57:37.621Z,56
2018-03-27T17:58:59.009Z,48
2018-03-27T18:00:20.676Z,40
2018-03-27T18:01:42.602Z,36
2018-03-27T18:03:04.786Z,28
2018-03-27T18:04:26.728Z,24
2018-03-27T18:05:48.366Z,20
2018-03-27T18:07:10.594Z,16
2018-03-27T18:08:32.781Z,12
2018-03-27T18:09:54.914Z,12
2018-03-27T18:11:16.962Z,8
2018-03-27T18:12:38.995Z,4
2018-03-27T18:14:01.176Z,16
2018-03-27T18:15:23.376Z,4
2018-03-27T18:16:44.816Z,4
2018-03-27T18:18:07.035Z,4
2018-03-27T18:19:28.425Z,4
2018-03-27T18:20:50.647Z,0
2018-03-27T18:22:12.854Z,0
2018-03-27T18:23:34.849Z,0
2018-03-27T18:24:57.129Z,0
2018-03-27T18:26:19.381Z,0
2018-03-27T18:27:41.075Z,0
2018-03-27T18:29:03.025Z,0
2018-03-27T18:30:24.943Z,0
2018-03-27T18:31:46.618Z,0
2018-03-27T18:33:08.252Z,0
2018-03-27T18:34:30.224Z,0
2018-03-27T18:35:52.165Z,0
2018-03-27T18:37:14.101Z,0